Airfield :
LOGIN :

Register | Disclaimer

   EN    FR    IT 

 










Legend :    VFR   Marginal VFR   IFR   Intensive IFR   Very Intensive IFR
Visi :
Ceiling :
>= 8 km
>= 3000ft
5 to 8 km
1000 to 3000 ft
1500m to 5 km
500 to 1000 ft
800 to 1500m
200 to 500 ft
< 800m
< 200 ft
Symbols :   Thunderstorms  Fog  Heavy snow  Heavy precipitations  Wind > 20 kt
SIGMETs :     Misc.  Thunderstorms  Icing  Turbulence  Mountain Waves  Volcanic Ashes







- Airport Elevation : 12 ft
- IATA code : BCN


LEBL - Barcelone

CURRENT METAR :
  • 172030Z 35005KT 330V030 9999 FEW035 13/11 Q1015 NOSIG

EXPIRED METARs :
  • 172000Z 34007KT 9999 -DZ FEW030 BKN050 13/11 Q1015 NOSIG
  • 171930Z 03005KT 9999 -DZ FEW035 BKN055 13/11 Q1015 NOSIG
  • 171900Z 01007KT 9999 FEW030 BKN050 13/11 Q1015 REDZ NOSIG
  • 171830Z 35006KT 9000 DZ FEW030 SCT040 BKN050 13/11 Q1015 TEMPO RA
  • 171800Z 03010KT 010V070 9999 -DZ FEW030 SCT040 BKN052 15/11 Q1015 TEMPO RA

TAF TAF LEBL
Valid from the 17 at 18:00 until the 18 at 18:00 UTC


171700Z 1718/1818 04007KT 9999 FEW030 BKN050 TX16/1812Z TN11/1806Z
TEMPO 1718/1818 4000 SHRA BKN020 FEW022CB
PROB30
TEMPO 1722/1806 3000 TSRA OVC020 SCT022CB
BECMG 1806/1809 08016KT
No reported NOTAMs for that airfield.



MET'MAP, your aeronautical weather chart ! - Copyright ORBIFLY December 2007 - Disclaimer

ORBIFLY MET'MAP TEAM :

Programming & Development : Alexandra Zaïnal
Concept & Development : Baudouin d'Aumeries
Co-Development & Prog : Marc-Olivier Méhu
Technical & hardware support : Manuel Goepfert

Contact : metmap@orbifly.com




SOURCES & CREDITS :

   NOAA